createdAt,value
2019-05-07T00:00:46.738Z,19.82
2019-05-07T00:03:16.314Z,18.65
2019-05-07T00:05:45.852Z,21.77
2019-05-07T00:08:15.347Z,18.73
2019-05-07T00:10:44.802Z,17.20
2019-05-07T00:13:14.372Z,17.12
2019-05-07T00:15:43.871Z,18.02
2019-05-07T00:18:13.332Z,16.35
2019-05-07T00:20:42.791Z,13.88
2019-05-07T00:23:12.499Z,13.50
2019-05-07T00:25:42.387Z,13.88
2019-05-07T00:28:12.340Z,13.45
2019-05-07T00:30:42.642Z,12.13
2019-05-07T00:33:13.167Z,12.33
2019-05-07T00:35:44.448Z,10.68
2019-05-07T00:38:15.581Z,11.80
2019-05-07T00:41:02.891Z,11.55
2019-05-07T00:43:34.118Z,11.57
2019-05-07T00:46:05.571Z,12.68
2019-05-07T00:48:35.059Z,12.70
2019-05-07T00:51:22.737Z,12.33
2019-05-07T00:53:52.459Z,14.55
2019-05-07T00:56:22.421Z,12.53
2019-05-07T00:58:52.702Z,12.85
2019-05-07T01:01:23.403Z,13.28
2019-05-07T01:03:53.588Z,14.05
2019-05-07T01:06:26.345Z,13.60
2019-05-07T01:08:55.657Z,14.35
2019-05-07T01:11:25.522Z,13.68
2019-05-07T01:13:55.011Z,14.80
2019-05-07T01:16:24.493Z,13.25
2019-05-07T01:18:53.950Z,15.95
2019-05-07T01:21:23.811Z,16.25
2019-05-07T01:23:53.376Z,17.55
2019-05-07T01:26:22.837Z,17.37
2019-05-07T01:29:02.831Z,17.87
2019-05-07T01:31:35.909Z,19.50
2019-05-07T01:34:13.061Z,21.27
2019-05-07T01:36:42.908Z,20.10
2019-05-07T01:39:13.098Z,20.30
2019-05-07T01:41:43.370Z,19.95
2019-05-07T01:44:12.947Z,21.35
2019-05-07T01:46:43.371Z,22.93
2019-05-07T01:49:13.929Z,21.95
2019-05-07T01:51:44.452Z,22.73
2019-05-07T01:54:13.955Z,23.12
2019-05-07T01:56:43.776Z,22.50
2019-05-07T01:59:13.232Z,25.48
2019-05-07T02:01:43.147Z,21.05
2019-05-07T02:04:14.267Z,20.97
2019-05-07T02:07:02.823Z,22.17
2019-05-07T02:09:42.334Z,22.00
2019-05-07T02:12:15.791Z,20.85
2019-05-07T02:14:45.295Z,22.15
2019-05-07T02:17:15.153Z,20.15
2019-05-07T02:19:44.650Z,18.80
2019-05-07T02:22:14.164Z,21.15
2019-05-07T02:24:43.612Z,20.82
2019-05-07T02:27:13.112Z,21.23
2019-05-07T02:29:43.093Z,18.77
2019-05-07T02:32:13.442Z,20.70
2019-05-07T02:34:44.210Z,20.00
2019-05-07T02:37:15.740Z,19.00
2019-05-07T02:39:49.856Z,21.23
2019-05-07T02:42:19.349Z,20.60
2019-05-07T02:44:59.763Z,21.60
2019-05-07T02:47:33.071Z,21.00
2019-05-07T02:50:04.242Z,25.00
2019-05-07T02:52:53.364Z,21.37
2019-05-07T02:55:23.511Z,19.20
2019-05-07T02:57:54.211Z,21.10
2019-05-07T03:00:24.518Z,23.85
2019-05-07T03:02:54.098Z,20.17
2019-05-07T03:05:23.588Z,21.00
2019-05-07T03:07:53.728Z,21.07
2019-05-07T03:10:24.220Z,22.30
2019-05-07T03:12:54.010Z,23.07
2019-05-07T03:15:24.295Z,21.20
2019-05-07T03:17:54.090Z,20.30
2019-05-07T03:20:43.040Z,22.98
2019-05-07T03:23:14.326Z,22.27
2019-05-07T03:25:54.124Z,21.45
2019-05-07T03:28:24.458Z,19.55
2019-05-07T03:30:57.152Z,21.75
2019-05-07T03:33:29.755Z,22.30
2019-05-07T03:36:06.298Z,22.27
2019-05-07T03:38:33.509Z,23.57
2019-05-07T03:41:04.224Z,23.95
2019-05-07T03:43:34.124Z,25.72
2019-05-07T03:46:05.434Z,25.57
2019-05-07T03:48:36.932Z,24.02
2019-05-07T03:51:06.505Z,24.45
2019-05-07T03:53:35.993Z,27.50
2019-05-07T03:56:05.522Z,25.10
2019-05-07T03:58:35.017Z,26.33
2019-05-07T04:01:04.816Z,26.20
2019-05-07T04:03:34.711Z,25.35
2019-05-07T04:06:04.533Z,24.23
2019-05-07T04:08:34.053Z,27.30
2019-05-07T04:11:04.099Z,26.90
2019-05-07T04:13:34.061Z,26.15
2019-05-07T04:16:04.276Z,26.68
2019-05-07T04:18:34.261Z,31.33
2019-05-07T04:21:04.196Z,24.75
2019-05-07T04:23:34.543Z,26.35
2019-05-07T04:26:05.870Z,22.35
2019-05-07T04:28:54.228Z,24.80
2019-05-07T04:31:25.548Z,26.15
2019-05-07T04:33:57.689Z,24.57
2019-05-07T04:36:28.963Z,25.10
2019-05-07T04:38:58.422Z,25.40
2019-05-07T04:41:28.306Z,24.10
2019-05-07T04:43:58.425Z,23.98
2019-05-07T04:46:27.929Z,26.37
2019-05-07T04:48:59.615Z,23.65
2019-05-07T04:51:33.753Z,22.58
2019-05-07T04:54:03.800Z,23.75
2019-05-07T04:56:33.827Z,24.70
2019-05-07T04:59:03.953Z,22.25
2019-05-07T05:01:35.063Z,24.32
2019-05-07T05:04:20.708Z,24.40
2019-05-07T05:06:36.066Z,23.00
2019-05-07T05:09:06.939Z,23.42
2019-05-07T05:11:36.447Z,26.85
2019-05-07T05:14:07.894Z,25.37
2019-05-07T05:16:37.159Z,25.70
2019-05-07T05:19:06.626Z,23.77
2019-05-07T05:21:49.938Z,28.25
2019-05-07T05:24:24.051Z,25.50
2019-05-07T05:26:53.512Z,24.30
2019-05-07T05:29:23.035Z,26.02
2019-05-07T05:31:52.938Z,24.95
2019-05-07T05:34:22.584Z,24.55
2019-05-07T05:36:53.204Z,23.92
2019-05-07T05:39:23.207Z,22.22
2019-05-07T05:41:54.303Z,21.95
2019-05-07T05:44:28.375Z,25.23
2019-05-07T05:46:57.882Z,21.50
2019-05-07T05:49:27.333Z,25.15
2019-05-07T05:51:58.531Z,23.30
2019-05-07T05:54:32.426Z,22.70
2019-05-07T05:57:09.701Z,24.32
2019-05-07T05:59:56.672Z,21.60
2019-05-07T06:02:43.996Z,21.97
2019-05-07T06:05:22.153Z,22.98
2019-05-07T06:07:53.741Z,21.07
2019-05-07T06:10:42.452Z,22.55
2019-05-07T06:13:13.628Z,24.32
2019-05-07T06:15:53.749Z,19.75
2019-05-07T06:18:41.878Z,19.57
2019-05-07T06:21:25.227Z,20.37
2019-05-07T06:23:59.319Z,21.10
2019-05-07T06:26:28.949Z,19.23
2019-05-07T06:28:58.785Z,21.20
2019-05-07T06:31:28.368Z,21.60
2019-05-07T06:33:57.949Z,18.60
2019-05-07T06:36:28.112Z,20.43
2019-05-07T06:39:01.824Z,17.20
2019-05-07T06:41:52.557Z,22.62
2019-05-07T06:44:23.058Z,19.12
2019-05-07T06:46:52.843Z,20.68
2019-05-07T06:49:22.456Z,17.82
2019-05-07T06:51:52.937Z,23.18
2019-05-07T06:54:23.386Z,15.93
2019-05-07T06:56:52.888Z,19.32
2019-05-07T06:59:27.148Z,15.63
2019-05-07T07:02:02.355Z,16.90
2019-05-07T07:04:35.632Z,18.12
2019-05-07T07:07:26.326Z,15.23
2019-05-07T07:09:48.120Z,14.03
2019-05-07T07:12:25.548Z,13.43
2019-05-07T07:14:53.714Z,13.25
2019-05-07T07:17:23.201Z,14.15
2019-05-07T07:19:53.224Z,14.33
2019-05-07T07:22:23.079Z,9.48
2019-05-07T07:24:53.118Z,12.58
2019-05-07T07:27:22.896Z,11.55
2019-05-07T07:30:04.455Z,12.07
2019-05-07T07:32:35.646Z,13.53
2019-05-07T07:35:08.875Z,13.35
2019-05-07T07:37:42.997Z,12.73
2019-05-07T07:42:56.468Z,11.20
2019-05-07T07:45:26.033Z,6.78
2019-05-07T07:47:55.562Z,12.85
2019-05-07T07:50:25.071Z,11.78
2019-05-07T07:52:54.662Z,14.13
2019-05-07T07:55:25.791Z,13.83
2019-05-07T07:58:11.941Z,9.40
2019-05-07T08:00:43.095Z,10.53
2019-05-07T08:03:14.317Z,12.37
2019-05-07T08:05:43.869Z,9.98
2019-05-07T08:08:13.683Z,12.63
2019-05-07T08:10:43.503Z,7.47
2019-05-07T08:13:12.951Z,12.35
2019-05-07T08:15:43.039Z,8.28
2019-05-07T08:18:12.867Z,9.25
2019-05-07T08:20:43.097Z,7.87
2019-05-07T08:23:12.718Z,7.92
2019-05-07T08:25:48.408Z,7.33
2019-05-07T08:28:23.132Z,7.17
2019-05-07T08:31:02.981Z,6.20
2019-05-07T08:33:34.128Z,8.18
2019-05-07T08:36:05.669Z,6.75
2019-05-07T08:38:36.865Z,9.15
2019-05-07T08:41:06.427Z,7.62
2019-05-07T08:43:35.933Z,5.87
2019-05-07T08:46:23.562Z,6.53
2019-05-07T08:48:54.419Z,7.75
2019-05-07T08:51:23.982Z,6.85
2019-05-07T08:54:05.691Z,5.12
2019-05-07T08:56:36.293Z,9.80
2019-05-07T08:59:08.331Z,9.80
2019-05-07T09:01:39.947Z,7.72
2019-05-07T09:04:10.000Z,6.85
2019-05-07T09:06:39.557Z,6.00
2019-05-07T09:09:13.492Z,4.00
2019-05-07T09:11:43.306Z,3.35
2019-05-07T09:14:14.151Z,4.80
2019-05-07T09:16:43.675Z,5.72
2019-05-07T09:19:14.180Z,8.45
2019-05-07T09:21:43.701Z,6.62
2019-05-07T09:24:14.669Z,6.03
2019-05-07T09:26:45.835Z,5.62
2019-05-07T09:29:17.526Z,6.42
2019-05-07T09:31:48.686Z,4.67
2019-05-07T09:34:26.022Z,5.60
2019-05-07T09:37:02.250Z,6.25
2019-05-07T09:39:32.418Z,5.95
2019-05-07T09:42:02.473Z,6.87
2019-05-07T09:44:32.512Z,5.42
2019-05-07T09:47:02.670Z,6.92
2019-05-07T09:49:32.668Z,6.22
2019-05-07T09:52:04.323Z,4.53
2019-05-07T09:54:33.472Z,5.28
2019-05-07T09:57:03.188Z,6.62
2019-05-07T09:59:33.016Z,4.22
2019-05-07T10:02:02.672Z,3.75
2019-05-07T10:04:32.758Z,5.70
2019-05-07T10:07:02.734Z,7.10
2019-05-07T10:09:32.943Z,5.75
2019-05-07T10:12:16.478Z,5.50
2019-05-07T10:14:46.143Z,4.83
2019-05-07T10:17:26.162Z,4.90
2019-05-07T10:19:55.716Z,5.90
2019-05-07T10:22:25.303Z,4.87
2019-05-07T10:24:54.888Z,4.53
2019-05-07T10:27:24.454Z,5.80
2019-05-07T10:29:54.325Z,5.33
2019-05-07T10:32:24.133Z,4.42
2019-05-07T10:34:55.170Z,4.25
2019-05-07T10:37:27.387Z,6.92
2019-05-07T10:39:56.029Z,6.70
2019-05-07T10:42:25.535Z,5.47
2019-05-07T10:45:03.336Z,3.87
2019-05-07T10:47:52.024Z,5.80
2019-05-07T10:50:35.476Z,7.33
2019-05-07T10:52:54.309Z,5.92
2019-05-07T10:55:23.845Z,3.98
2019-05-07T10:57:53.416Z,6.95
2019-05-07T11:00:25.473Z,9.40
2019-05-07T11:02:55.002Z,6.03
2019-05-07T11:05:24.516Z,3.95
2019-05-07T11:07:54.142Z,6.85
2019-05-07T11:10:23.797Z,6.37
2019-05-07T11:12:53.351Z,5.80
2019-05-07T11:15:22.977Z,4.17
2019-05-07T11:17:56.520Z,7.95
2019-05-07T11:20:26.098Z,6.05
2019-05-07T11:22:55.692Z,4.30
2019-05-07T11:25:25.571Z,3.85
2019-05-07T11:27:55.066Z,5.08
2019-05-07T11:30:24.552Z,3.20
2019-05-07T11:32:53.992Z,4.20
2019-05-07T11:35:23.541Z,3.47
2019-05-07T11:37:52.979Z,6.97
2019-05-07T11:40:23.087Z,4.87
2019-05-07T11:43:12.897Z,6.35
2019-05-07T11:45:46.201Z,5.67
2019-05-07T11:48:18.084Z,5.03
2019-05-07T11:51:03.815Z,7.58
2019-05-07T11:53:29.948Z,6.28
2019-05-07T11:55:59.401Z,5.30
2019-05-07T11:58:29.303Z,5.03
2019-05-07T12:01:09.466Z,6.87
2019-05-07T12:03:38.925Z,3.98
2019-05-07T12:06:09.449Z,4.05
2019-05-07T12:08:48.132Z,4.70
2019-05-07T12:11:11.923Z,8.25
2019-05-07T12:13:42.767Z,5.45
2019-05-07T12:16:14.222Z,4.03
2019-05-07T12:18:43.802Z,6.05
2019-05-07T12:21:20.254Z,4.17
2019-05-07T12:23:44.590Z,4.22
2019-05-07T12:26:14.436Z,3.75
2019-05-07T12:28:43.992Z,4.62
2019-05-07T12:31:15.073Z,4.50
2019-05-07T12:33:46.272Z,3.92
2019-05-07T12:36:16.095Z,5.08
2019-05-07T12:38:45.607Z,4.72
2019-05-07T12:41:34.153Z,4.40
2019-05-07T12:44:06.675Z,3.47
2019-05-07T12:46:37.284Z,3.05
2019-05-07T12:49:08.066Z,5.75
2019-05-07T12:51:48.205Z,3.85
2019-05-07T12:54:19.507Z,5.37
2019-05-07T12:56:49.177Z,5.50
2019-05-07T12:59:18.742Z,5.15
2019-05-07T13:02:16.688Z,3.17
2019-05-07T13:04:37.803Z,4.67
2019-05-07T13:07:24.129Z,3.83
2019-05-07T13:09:54.232Z,5.40
2019-05-07T13:12:24.103Z,5.20
2019-05-07T13:14:54.967Z,4.83
2019-05-07T13:17:24.433Z,5.65
2019-05-07T13:19:54.250Z,3.60
2019-05-07T13:22:23.707Z,3.72
2019-05-07T13:24:53.232Z,4.10
2019-05-07T13:27:23.238Z,3.95
2019-05-07T13:29:53.400Z,5.85
2019-05-07T13:32:24.234Z,3.95
2019-05-07T13:34:54.266Z,7.40
2019-05-07T13:37:28.556Z,5.22
2019-05-07T13:40:02.558Z,6.08
2019-05-07T13:42:41.911Z,3.42
2019-05-07T13:45:15.975Z,3.50
2019-05-07T13:47:46.069Z,4.65
2019-05-07T13:50:15.980Z,5.42
2019-05-07T13:52:45.496Z,3.77
2019-05-07T13:55:15.121Z,3.60
2019-05-07T13:57:44.713Z,4.72
2019-05-07T14:00:16.868Z,2.67
2019-05-07T14:02:46.469Z,3.70
2019-05-07T14:05:16.107Z,3.33
2019-05-07T14:07:45.948Z,9.55
2019-05-07T14:10:15.685Z,4.62
2019-05-07T14:12:45.272Z,4.75
2019-05-07T14:15:14.995Z,3.92
2019-05-07T14:17:44.815Z,3.33
2019-05-07T14:20:14.852Z,3.17
2019-05-07T14:22:44.677Z,5.30
2019-05-07T14:25:14.606Z,2.90
2019-05-07T14:27:44.226Z,3.22
2019-05-07T14:30:14.538Z,4.22
2019-05-07T14:32:48.926Z,3.80
2019-05-07T14:35:32.367Z,4.60
2019-05-07T14:38:03.708Z,4.12
2019-05-07T14:40:33.272Z,3.83
2019-05-07T14:43:07.423Z,5.00
2019-05-07T14:45:37.406Z,5.87
2019-05-07T14:48:06.902Z,6.45
2019-05-07T14:50:36.743Z,3.17
2019-05-07T14:53:06.306Z,4.20
2019-05-07T14:55:36.278Z,7.58
2019-05-07T14:58:06.146Z,4.05
2019-05-07T15:00:35.946Z,5.05
2019-05-07T15:03:05.536Z,3.30
2019-05-07T15:05:35.128Z,4.80
2019-05-07T15:08:10.461Z,3.72
2019-05-07T15:10:36.097Z,3.92
2019-05-07T15:13:05.577Z,4.25
2019-05-07T15:15:36.231Z,5.20
2019-05-07T15:18:23.921Z,5.05
2019-05-07T15:20:53.943Z,3.83
2019-05-07T15:23:25.727Z,4.53
2019-05-07T15:25:56.147Z,4.90
2019-05-07T15:28:26.249Z,3.58
2019-05-07T15:31:09.736Z,6.37
2019-05-07T15:33:39.326Z,3.67
2019-05-07T15:36:08.830Z,3.77
2019-05-07T15:38:38.313Z,5.78
2019-05-07T15:41:07.875Z,6.45
2019-05-07T15:43:37.707Z,3.50
2019-05-07T15:46:07.373Z,4.62
2019-05-07T15:48:36.914Z,4.95
2019-05-07T15:51:06.481Z,3.95
2019-05-07T15:53:42.608Z,7.28
2019-05-07T15:56:12.444Z,59.65
2019-05-07T15:58:42.677Z,8.30
2019-05-07T16:01:13.426Z,4.62
2019-05-07T16:03:44.635Z,5.58
2019-05-07T16:06:14.187Z,6.83
2019-05-07T16:08:45.354Z,5.05
2019-05-07T16:11:15.200Z,4.78
2019-05-07T16:13:47.518Z,5.15
2019-05-07T16:16:17.062Z,3.42
2019-05-07T16:19:07.054Z,6.75
2019-05-07T16:21:36.531Z,4.78
2019-05-07T16:24:06.090Z,5.70
2019-05-07T16:26:35.729Z,3.70
2019-05-07T16:29:05.178Z,4.58
2019-05-07T16:31:34.738Z,5.60
2019-05-07T16:34:04.260Z,3.87
2019-05-07T16:36:33.763Z,5.87
2019-05-07T16:39:04.112Z,4.00
2019-05-07T16:41:34.779Z,6.65
2019-05-07T16:44:06.479Z,4.62
2019-05-07T16:46:35.941Z,5.03
2019-05-07T16:49:05.391Z,5.25
2019-05-07T16:51:34.892Z,4.92
2019-05-07T16:54:04.695Z,3.75
2019-05-07T16:56:34.213Z,4.65
2019-05-07T16:59:07.546Z,7.22
2019-05-07T17:01:37.358Z,3.95
2019-05-07T17:04:07.181Z,5.33
2019-05-07T17:06:36.720Z,3.75
2019-05-07T17:09:14.471Z,5.22
2019-05-07T17:11:44.007Z,4.47
2019-05-07T17:14:13.529Z,5.55
2019-05-07T17:16:42.975Z,3.58
2019-05-07T17:19:14.052Z,3.30
2019-05-07T17:21:44.599Z,3.80
2019-05-07T17:24:14.202Z,4.15
2019-05-07T17:26:44.138Z,5.15
2019-05-07T17:29:13.615Z,5.37
2019-05-07T17:31:43.154Z,3.98
2019-05-07T17:34:12.659Z,5.08
2019-05-07T17:36:42.419Z,5.15
2019-05-07T17:39:12.310Z,3.98
2019-05-07T17:41:42.908Z,4.78
2019-05-07T17:44:12.692Z,5.00
2019-05-07T17:46:43.187Z,6.58
2019-05-07T17:49:13.701Z,8.40
2019-05-07T17:51:43.824Z,5.53
2019-05-07T17:54:14.629Z,5.10
2019-05-07T17:56:44.276Z,5.03
2019-05-07T17:59:13.908Z,4.58
2019-05-07T18:01:50.111Z,5.55
2019-05-07T18:04:19.362Z,6.58
2019-05-07T18:06:48.873Z,5.20
2019-05-07T18:09:18.490Z,6.42
2019-05-07T18:11:47.970Z,5.15
2019-05-07T18:14:17.502Z,7.08
2019-05-07T18:16:57.998Z,5.60
2019-05-07T18:19:29.096Z,5.65
2019-05-07T18:21:58.593Z,6.97
2019-05-07T18:24:28.191Z,5.65
2019-05-07T18:26:58.744Z,6.75
2019-05-07T18:29:28.227Z,6.75
2019-05-07T18:32:00.523Z,5.92
2019-05-07T18:34:32.085Z,6.35
2019-05-07T18:37:02.146Z,7.20
2019-05-07T18:39:32.414Z,5.40
2019-05-07T18:42:02.820Z,5.83
2019-05-07T18:44:32.460Z,7.25
2019-05-07T18:47:02.474Z,6.17
2019-05-07T18:49:32.268Z,7.58
2019-05-07T18:52:02.912Z,5.45
2019-05-07T18:54:34.349Z,8.48
2019-05-07T18:57:03.863Z,6.20
2019-05-07T18:59:35.095Z,5.03
2019-05-07T19:02:05.214Z,7.30
2019-05-07T19:04:35.326Z,6.30
2019-05-07T19:07:04.838Z,12.30
2019-05-07T19:09:34.506Z,14.53
2019-05-07T19:12:05.061Z,11.80
2019-05-07T19:14:34.614Z,8.13
2019-05-07T19:17:04.504Z,45.85
2019-05-07T19:19:34.074Z,9.43
2019-05-07T19:22:03.576Z,13.55
2019-05-07T19:24:44.326Z,10.23
2019-05-07T19:27:04.761Z,7.47
2019-05-07T19:29:34.547Z,7.30
2019-05-07T19:32:06.026Z,5.60
2019-05-07T19:34:35.563Z,6.70
2019-05-07T19:37:06.097Z,8.33
2019-05-07T19:39:35.599Z,9.65
2019-05-07T19:42:05.315Z,10.13
2019-05-07T19:44:35.204Z,6.33
2019-05-07T19:47:05.739Z,6.58
2019-05-07T19:49:35.201Z,8.10
2019-05-07T19:52:05.381Z,8.65
2019-05-07T19:54:35.184Z,9.15
2019-05-07T19:57:04.912Z,6.90
2019-05-07T19:59:34.707Z,6.70
2019-05-07T20:02:07.580Z,6.67
2019-05-07T20:04:37.041Z,8.08
2019-05-07T20:07:07.009Z,6.20
2019-05-07T20:09:38.104Z,7.05
2019-05-07T20:12:08.107Z,7.12
2019-05-07T20:14:37.848Z,6.70
2019-05-07T20:17:07.462Z,9.88
2019-05-07T20:19:36.957Z,6.45
2019-05-07T20:22:06.939Z,7.47
2019-05-07T20:24:36.366Z,9.20
2019-05-07T20:27:06.022Z,10.72
2019-05-07T20:29:35.571Z,6.03
2019-05-07T20:32:05.116Z,7.37
2019-05-07T20:34:34.700Z,8.25
2019-05-07T20:37:04.664Z,7.03
2019-05-07T20:39:34.176Z,6.47
2019-05-07T20:42:04.091Z,8.15
2019-05-07T20:44:33.891Z,8.23
2019-05-07T20:47:03.480Z,7.45
2019-05-07T20:49:33.028Z,7.65
2019-05-07T20:52:03.042Z,8.28
2019-05-07T20:54:43.228Z,6.85
2019-05-07T20:57:22.304Z,6.35
2019-05-07T20:59:51.712Z,9.45
2019-05-07T21:02:22.742Z,8.75
2019-05-07T21:04:52.923Z,8.18
2019-05-07T21:07:22.549Z,8.68
2019-05-07T21:09:53.003Z,9.40
2019-05-07T21:12:22.799Z,8.45
2019-05-07T21:14:52.671Z,8.20
2019-05-07T21:17:22.762Z,8.85
2019-05-07T21:19:52.318Z,7.62
2019-05-07T21:22:22.799Z,8.10
2019-05-07T21:24:53.211Z,8.68
2019-05-07T21:27:23.264Z,8.43
2019-05-07T21:29:54.103Z,7.85
2019-05-07T21:32:23.668Z,9.60
2019-05-07T21:34:53.115Z,7.72
2019-05-07T21:37:23.336Z,8.63
2019-05-07T21:39:53.250Z,8.75
2019-05-07T21:42:23.099Z,9.95
2019-05-07T21:44:52.894Z,9.05
2019-05-07T21:47:22.396Z,8.55
2019-05-07T21:49:54.898Z,8.90
2019-05-07T21:52:24.967Z,8.13
2019-05-07T21:54:56.356Z,8.95
2019-05-07T21:57:45.629Z,9.43
2019-05-07T22:00:21.965Z,9.13
2019-05-07T22:02:52.811Z,7.75
2019-05-07T22:05:22.730Z,10.88
2019-05-07T22:07:54.435Z,9.58
2019-05-07T22:10:24.044Z,11.18
2019-05-07T22:12:54.639Z,10.78
2019-05-07T22:15:24.233Z,8.53
2019-05-07T22:17:54.052Z,11.50
2019-05-07T22:20:23.877Z,10.38
2019-05-07T22:22:53.366Z,12.33
2019-05-07T22:25:22.921Z,10.48
2019-05-07T22:27:54.391Z,10.15
2019-05-07T22:30:34.734Z,9.28
2019-05-07T22:33:05.936Z,11.48
2019-05-07T22:35:37.104Z,9.80
2019-05-07T22:38:25.122Z,10.43
2019-05-07T22:40:55.955Z,10.40
2019-05-07T22:43:26.521Z,10.08
2019-05-07T22:45:56.112Z,11.75
2019-05-07T22:48:25.960Z,9.98
2019-05-07T22:50:55.398Z,9.45
2019-05-07T22:53:24.871Z,9.50
2019-05-07T22:55:57.229Z,11.78
2019-05-07T22:58:28.365Z,10.78
2019-05-07T23:01:02.571Z,10.60
2019-05-07T23:03:32.344Z,11.70
2019-05-07T23:06:08.003Z,11.55
2019-05-07T23:08:38.766Z,12.55
2019-05-07T23:11:08.371Z,10.90
2019-05-07T23:13:38.056Z,11.12
2019-05-07T23:16:07.623Z,11.75
2019-05-07T23:18:37.068Z,11.57
2019-05-07T23:21:06.563Z,13.43
2019-05-07T23:23:36.030Z,11.30
2019-05-07T23:26:05.838Z,9.90
2019-05-07T23:28:35.350Z,12.18
2019-05-07T23:31:04.813Z,14.28
2019-05-07T23:33:34.332Z,11.95
2019-05-07T23:36:04.252Z,12.37
2019-05-07T23:38:33.774Z,12.47
2019-05-07T23:41:22.323Z,11.83
2019-05-07T23:44:12.625Z,10.20
2019-05-07T23:46:44.894Z,14.98
2019-05-07T23:49:13.603Z,11.85
2019-05-07T23:51:43.133Z,11.60
2019-05-07T23:54:12.567Z,13.93
2019-05-07T23:56:43.003Z,12.35
2019-05-07T23:59:14.925Z,10.38
